Greenfield Township, Maine
Current Conditions -  °F | °C
As of 4:53 PM on Thursday 23 Oct 2014 (Local Time) from KBGR Reporting Station
Light Rain Light Rain  
Wind Chill: 50°   Ceiling: 900
Heat Index: 50°   Visibility: 5mi
Dew Point: 48°   Wind: 17mph
Humidity: 93%   Direction: 30°NNE
Pressure: 29.82"   Gusts: NA
Location:  45.0802°N, 68.5883°W
Report Text: KBGR 232053Z 03015KT 5SM -RA BR BKN009 OVC015 10/09 A2982 RMK AO2 DZE51RAB51 SLP098 P0000 60003 T01000089 58013
Loading
Personal Weather Stations






























Interactive Weather Map
Tropical Storm Tracking
New forecast layout! Learn more

10-Day Weather Forecast

Advertisements
Track Severe Weather on mobile